Time;durP1;ratioP1;P1;durP2;ratioP2;P2;SDS_P1;SDS_P2;PMS_P1;PMS_P2;Temp;Humidity;BMP_temperature;BMP_pressure;BME280_temperature;BME280_humidity;BME280_pressure;Samples;Min_cycle;Max_cycle;Signal;HPM_P1;HPM_P2
2021/05/27 00:00:00;;;;;;;;;;;;;;;21.18;61.70;101120.88;5069695;28;624;-67
2021/05/27 00:02:45;;;;;;;;;;;;;;;21.16;61.60;101110.34;5070006;28;1280;-67
2021/05/27 00:05:31;;;;;;;;;;;;;;;21.16;61.81;101115.66;5063189;28;1749;-67
2021/05/27 00:08:16;;;;;;;;;;;;;;;21.17;61.83;101120.00;5061775;28;1910;-67
2021/05/27 00:11:02;;;;;;;;;;;;;;;21.17;61.83;101117.38;5059531;28;1713;-67
2021/05/27 00:13:47;;;;;;;;;;;;;;;21.16;61.52;101118.31;5063985;28;1776;-67
2021/05/27 00:16:32;;;;;;;;;;;;;;;21.16;61.83;101115.66;5063550;28;1753;-67
2021/05/27 00:19:18;;;;;;;;;;;;;;;21.15;61.70;101113.97;5061920;28;1662;-67
2021/05/27 00:22:03;;;;;;;;;;;;;;;21.17;61.49;101116.50;5064489;28;1670;-67
2021/05/27 00:24:49;;;;;;;;;;;;;;;21.17;61.56;101111.22;5067079;28;636;-67
2021/05/27 00:27:34;;;;;;;;;;;;;;;21.16;61.48;101114.78;5067349;28;1922;-67
2021/05/27 00:30:20;;;;;;;;;;;;;;;21.16;61.64;101105.06;5067033;28;668;-67
2021/05/27 00:33:05;;;;;;;;;;;;;;;21.16;61.95;101105.06;5067543;28;1166;-67
2021/05/27 00:35:50;;;;;;;;;;;;;;;21.17;62.04;101105.91;5066807;28;1393;-67
2021/05/27 00:38:36;;;;;;;;;;;;;;;21.15;61.74;101111.31;5069433;28;1652;-67
2021/05/27 00:41:21;;;;;;;;;;;;;;;21.14;61.80;101114.91;5068979;28;1353;-67
2021/05/27 00:44:26;;;;;;;;;;;;;;;21.13;61.75;101107.91;5068756;28;738;-67
2021/05/27 00:47:12;;;;;;;;;;;;;;;21.14;61.62;101109.59;5068490;28;1234;-68
2021/05/27 00:49:57;;;;;;;;;;;;;;;21.14;61.70;101106.97;5068680;28;656;-67
2021/05/27 00:52:43;;;;;;;;;;;;;;;21.13;61.84;101105.25;5068897;28;1295;-67
2021/05/27 00:55:29;;;;;;;;;;;;;;;21.14;61.74;101104.31;5068726;28;659;-67
2021/05/27 00:58:17;;;;;;;;;;;;;;;21.14;61.68;101092.84;5069070;28;616;-68
2021/05/27 01:01:03;;;;;;;;;;;;;;;21.12;61.79;101092.97;5068541;28;1272;-67
2021/05/27 01:03:48;;;;;;;;;;;;;;;21.14;61.66;101099.00;5053377;28;680;-66
2021/05/27 01:06:33;;;;;;;;;;;;;;;21.13;61.91;101101.75;5053271;28;1291;-66
2021/05/27 01:09:18;;;;;;;;;;;;;;;21.13;61.68;101099.94;5069072;28;1957;-65
2021/05/27 01:12:04;;;;;;;;;;;;;;;21.12;61.84;101087.66;5068810;28;1284;-66
2021/05/27 01:17:55;;;;;;;;;;;;;;;21.12;61.73;101092.97;5072928;28;1197;-66
2021/05/27 01:20:45;;;;;;;;;;;;;;;21.11;61.88;101087.75;5073038;28;1348;-65
2021/05/27 01:23:30;;;;;;;;;;;;;;;21.11;61.94;101085.94;5057162;28;687;-66
2021/05/27 01:26:15;;;;;;;;;;;;;;;21.12;61.57;101092.97;5072557;28;1288;-66
2021/05/27 01:29:01;;;;;;;;;;;;;;;21.12;61.92;101089.47;5072421;28;1905;-66
2021/05/27 01:31:46;;;;;;;;;;;;;;;21.10;61.65;101089.53;5072451;28;1373;-66
2021/05/27 01:34:32;;;;;;;;;;;;;;;21.11;61.83;101091.25;5072254;28;699;-66
2021/05/27 01:37:17;;;;;;;;;;;;;;;21.10;61.67;101089.53;5072341;28;1365;-66
2021/05/27 01:40:02;;;;;;;;;;;;;;;21.09;62.09;101084.34;5057024;28;675;-66
2021/05/27 01:42:48;;;;;;;;;;;;;;;21.10;61.83;101091.34;5072791;28;1243;-66
2021/05/27 01:45:34;;;;;;;;;;;;;;;21.09;61.75;101079.91;5071978;28;1379;-66
2021/05/27 01:48:20;;;;;;;;;;;;;;;21.10;61.94;101086.88;5072196;28;1961;-66
2021/05/27 01:51:05;;;;;;;;;;;;;;;21.09;61.81;101079.06;5057090;28;1338;-66
2021/05/27 01:53:50;;;;;;;;;;;;;;;21.10;62.00;101083.38;5071769;28;643;-65
2021/05/27 01:56:35;;;;;;;;;;;;;;;21.09;61.71;101087.84;5071976;28;1373;-66
2021/05/27 01:59:21;;;;;;;;;;;;;;;21.08;61.85;101078.19;5073431;28;687;-66
2021/05/27 02:02:06;;;;;;;;;;;;;;;21.08;61.97;101075.53;5073216;28;1268;-66
2021/05/27 02:04:51;;;;;;;;;;;;;;;21.09;61.62;101076.41;5073628;28;691;-66
2021/05/27 02:07:37;;;;;;;;;;;;;;;21.07;61.74;101076.44;5072677;28;1291;-65
2021/05/27 02:10:23;;;;;;;;;;;;;;;21.07;61.73;101078.25;5071565;28;695;-66
2021/05/27 02:13:08;;;;;;;;;;;;;;;21.08;61.82;101080.84;5071323;28;1038;-67
2021/05/27 02:15:53;;;;;;;;;;;;;;;21.07;61.63;101072.94;5071379;28;1325;-66
2021/05/27 02:18:39;;;;;;;;;;;;;;;21.07;61.80;101076.44;5071459;28;640;-66
2021/05/27 02:21:24;;;;;;;;;;;;;;;21.07;61.69;101076.44;5071683;28;1310;-66
2021/05/27 02:24:10;;;;;;;;;;;;;;;21.08;62.06;101078.19;5071694;28;666;-66
2021/05/27 02:26:55;;;;;;;;;;;;;;;21.07;61.96;101073.81;5071369;28;1316;-67
2021/05/27 02:29:41;;;;;;;;;;;;;;;21.06;61.86;101072.13;5071215;28;1961;-66
2021/05/27 02:32:26;;;;;;;;;;;;;;;21.05;61.93;101059.81;5071330;28;1236;-66
2021/05/27 02:35:11;;;;;;;;;;;;;;;21.05;61.79;101067.75;5071118;28;714;-66
2021/05/27 02:37:56;;;;;;;;;;;;;;;21.05;62.04;101062.47;5071260;28;1215;-67
2021/05/27 02:40:42;;;;;;;;;;;;;;;21.05;61.97;101053.66;5071128;28;1276;-66
2021/05/27 02:43:28;;;;;;;;;;;;;;;21.05;61.90;101054.50;5071294;28;702;-66
2021/05/27 02:46:14;;;;;;;;;;;;;;;21.04;61.97;101050.16;5055691;28;1295;-66
2021/05/27 02:49:07;;;;;;;;;;;;;;;21.05;61.89;101049.22;5070769;28;1909;-66
2021/05/27 02:51:53;;;;;;;;;;;;;;;21.03;61.67;101040.53;5070807;28;1259;-66
2021/05/27 02:54:38;;;;;;;;;;;;;;;21.05;61.76;101040.41;5071384;28;643;-66
2021/05/27 02:57:23;;;;;;;;;;;;;;;21.04;62.00;101042.22;5071100;28;1272;-66
2021/05/27 03:00:09;;;;;;;;;;;;;;;21.03;61.92;101040.53;5070535;28;663;-66
2021/05/27 03:02:54;;;;;;;;;;;;;;;21.04;62.02;101044.84;5055625;28;1307;-66
2021/05/27 03:05:40;;;;;;;;;;;;;;;21.03;61.98;101035.22;5070533;28;1321;-66
2021/05/27 03:08:27;;;;;;;;;;;;;;;21.03;61.91;101032.59;5055666;28;1917;-66
2021/05/27 03:11:12;;;;;;;;;;;;;;;21.03;62.04;101029.06;5070267;28;1204;-67
2021/05/27 03:13:57;;;;;;;;;;;;;;;21.02;61.74;101022.91;5070348;28;601;-66
2021/05/27 03:16:43;;;;;;;;;;;;;;;21.02;61.86;101025.56;5070449;28;1276;-66
2021/05/27 03:19:28;;;;;;;;;;;;;;;21.03;61.98;101027.28;5069846;28;620;-66
2021/05/27 03:22:13;;;;;;;;;;;;;;;21.02;62.13;101019.41;5070435;28;1280;-66
2021/05/27 03:24:59;;;;;;;;;;;;;;;21.01;61.85;101023.84;5070176;28;627;-67
2021/05/27 03:27:44;;;;;;;;;;;;;;;21.01;61.84;101023.00;5070441;28;1321;-66
2021/05/27 03:30:29;;;;;;;;;;;;;;;21.01;62.05;101026.50;5070107;28;1906;-66
2021/05/27 03:33:15;;;;;;;;;;;;;;;21.01;62.14;101028.28;5070046;28;627;-66
2021/05/27 03:36:00;;;;;;;;;;;;;;;21.02;62.13;101025.56;5070035;28;1260;-65
2021/05/27 03:38:45;;;;;;;;;;;;;;;21.02;61.86;101024.72;5069343;28;1482;-66
2021/05/27 03:41:31;;;;;;;;;;;;;;;21.00;61.85;101021.31;5069518;28;1361;-66
2021/05/27 03:44:16;;;;;;;;;;;;;;;21.00;62.07;101019.53;5068801;28;643;-66
2021/05/27 03:47:01;;;;;;;;;;;;;;;21.00;61.84;101016.88;5069705;28;1296;-66
2021/05/27 03:49:47;;;;;;;;;;;;;;;21.00;62.00;101018.66;5054518;28;1910;-66
2021/05/27 03:52:32;;;;;;;;;;;;;;;20.99;62.19;101015.16;5069712;28;1359;-67
2021/05/27 03:55:18;;;;;;;;;;;;;;;21.00;62.27;101010.72;5069785;28;648;-67
2021/05/27 04:00:41;;;;;;;;;;;;;;;20.98;62.12;101021.41;5069817;28;1044;-65
2021/05/27 04:01:10;;;;;;;;;;;;;;;20.97;61.89;101019.72;5069165;28;1277;-66
2021/05/27 04:09:53;;;;;;;;;;;;;;;20.98;62.03;101026.69;5069299;28;1906;-66
2021/05/27 04:12:45;;;;;;;;;;;;;;;20.98;62.15;101029.34;5069546;28;1346;-66
2021/05/27 04:15:32;;;;;;;;;;;;;;;20.97;62.19;101027.66;5054206;28;672;-66
2021/05/27 04:18:19;;;;;;;;;;;;;;;20.98;62.17;101029.34;5069452;28;729;-66
2021/05/27 04:21:04;;;;;;;;;;;;;;;20.98;61.86;101025.84;5069232;28;1291;-66
2021/05/27 04:23:50;;;;;;;;;;;;;;;20.97;62.10;101025.00;5069230;28;616;-66
2021/05/27 04:26:35;;;;;;;;;;;;;;;20.97;61.91;101024.16;5069150;28;1286;-66
2021/05/27 04:29:20;;;;;;;;;;;;;;;20.96;61.98;101020.66;5068160;28;1910;-66
2021/05/27 04:32:06;;;;;;;;;;;;;;;20.97;62.12;101030.31;5053723;28;1290;-66
2021/05/27 04:34:51;;;;;;;;;;;;;;;20.96;62.11;101033.91;5068377;28;699;-66
2021/05/27 04:37:36;;;;;;;;;;;;;;;20.97;62.39;101045.34;5068807;28;1394;-66
2021/05/27 04:40:22;;;;;;;;;;;;;;;20.96;62.28;101038.34;5069153;28;647;-66
2021/05/27 04:43:08;;;;;;;;;;;;;;;20.95;62.28;101037.47;5069209;28;1015;-66
2021/05/27 04:45:53;;;;;;;;;;;;;;;20.97;62.26;101038.25;5068606;28;1257;-66
2021/05/27 04:48:38;;;;;;;;;;;;;;;20.96;62.24;101051.56;5052651;28;1902;-66
2021/05/27 04:51:24;;;;;;;;;;;;;;;20.97;62.24;101043.56;5067595;28;1540;-70
2021/05/27 04:54:09;;;;;;;;;;;;;;;20.98;62.22;101050.53;5068255;28;669;-67
2021/05/27 04:56:54;;;;;;;;;;;;;;;20.97;62.57;101042.69;5067657;28;1280;-69
2021/05/27 04:59:39;;;;;;;;;;;;;;;20.99;62.32;101046.09;5068150;28;623;-66
2021/05/27 05:02:25;;;;;;;;;;;;;;;20.98;62.49;101058.47;5068036;28;1367;-66
2021/05/27 05:05:11;;;;;;;;;;;;;;;20.99;62.41;101064.63;5067493;28;706;-67
2021/05/27 05:07:57;;;;;;;;;;;;;;;20.98;62.59;101060.25;5068018;28;1301;-67
2021/05/27 05:10:43;;;;;;;;;;;;;;;20.99;62.33;101069.94;5051954;28;1910;-67
2021/05/27 05:13:28;;;;;;;;;;;;;;;20.99;62.38;101067.28;5067383;28;733;-68
2021/05/27 05:16:13;;;;;;;;;;;;;;;20.99;62.45;101072.56;5067204;28;1323;-69
2021/05/27 05:18:59;;;;;;;;;;;;;;;20.99;62.48;101070.78;5067068;28;706;-69
2021/05/27 05:21:44;;;;;;;;;;;;;;;21.00;62.44;101069.84;5067230;28;1318;-69
2021/05/27 05:24:29;;;;;;;;;;;;;;;21.00;62.52;101077.78;5067360;28;666;-69
2021/05/27 05:27:14;;;;;;;;;;;;;;;21.00;62.58;101083.09;5067225;28;1276;-67
2021/05/27 05:30:00;;;;;;;;;;;;;;;20.99;62.53;101080.53;5067015;28;1914;-70
2021/05/27 05:32:47;;;;;;;;;;;;;;;21.00;62.19;101085.75;5051916;28;1310;-70
2021/05/27 05:35:32;;;;;;;;;;;;;;;21.01;62.49;101084.78;5067560;28;1275;-69
2021/05/27 05:38:18;;;;;;;;;;;;;;;21.06;62.60;101081.84;5052185;28;1463;-71
2021/05/27 05:41:04;;;;;;;;;;;;;;;21.04;62.55;101089.03;5067450;28;1285;-69
2021/05/27 05:43:49;;;;;;;;;;;;;;;21.07;62.56;101089.69;5067687;28;635;-67
2021/05/27 05:46:34;;;;;;;;;;;;;;;21.11;62.96;101085.09;5067176;28;1215;-66
2021/05/27 05:49:19;;;;;;;;;;;;;;;21.15;62.17;101095.44;5067359;28;1906;-64
2021/05/27 05:52:05;;;;;;;;;;;;;;;21.06;62.33;101093.31;5066577;28;1539;-66
2021/05/27 05:54:50;;;;;;;;;;;;;;;21.06;62.67;101103.03;5047447;28;674;-68
2021/05/27 05:57:35;;;;;;;;;;;;;;;21.05;62.34;101101.34;5047322;28;1355;-67
2021/05/27 06:00:21;;;;;;;;;;;;;;;21.05;62.61;101098.69;5047927;28;644;-68
2021/05/27 06:03:06;;;;;;;;;;;;;;;21.18;64.23;101111.13;5052049;28;1035;-65
2021/05/27 06:05:52;;;;;;;;;;;;;;;21.14;62.92;101106.97;5051149;28;1272;-66
2021/05/27 06:08:37;;;;;;;;;;;;;;;21.11;63.26;101107.16;5051786;28;616;-69
2021/05/27 06:11:23;;;;;;;;;;;;;;;21.11;63.63;101108.94;5051044;28;1264;-65
2021/05/27 06:14:08;;;;;;;;;;;;;;;21.11;63.64;101111.59;5051374;28;628;-65
2021/05/27 06:16:55;;;;;;;;;;;;;;;21.10;63.37;101108.06;5050790;28;1326;-67
2021/05/27 06:19:40;;;;;;;;;;;;;;;21.11;63.59;101107.16;5050776;28;569;-67
2021/05/27 06:22:25;;;;;;;;;;;;;;;21.17;64.16;101104.13;5035931;28;1374;-68
2021/05/27 06:25:10;;;;;;;;;;;;;;;21.16;63.77;101098.91;5065989;28;1504;-65
2021/05/27 06:27:56;;;;;;;;;;;;;;;21.13;63.34;101101.75;5050684;28;1418;-68
2021/05/27 06:30:41;;;;;;;;;;;;;;;21.10;63.29;101094.84;5050113;28;1906;-67
2021/05/27 06:33:30;;;;;;;;;;;;;;;21.17;63.55;101101.47;5050256;28;640;-65
2021/05/27 06:36:16;;;;;;;;;;;;;;;21.29;64.03;101093.69;5035276;28;1347;-65
2021/05/27 06:39:04;;;;;;;;;;;;;;;21.28;64.36;101081.41;5034959;28;1149;-67
2021/05/27 06:41:49;;;;;;;;;;;;;;;21.28;64.56;101092.84;5049438;28;1260;-68
2021/05/27 06:44:34;;;;;;;;;;;;;;;21.30;64.34;101095.41;5035020;28;721;-68
2021/05/27 06:47:20;;;;;;;;;;;;;;;21.32;64.51;101104.09;5050052;28;1350;-67
2021/05/27 06:50:08;;;;;;;;;;;;;;;21.33;64.26;101103.16;5034623;28;1902;-65
2021/05/27 06:52:53;;;;;;;;;;;;;;;21.35;64.16;101107.44;5068354;28;1251;-67
2021/05/27 06:55:39;;;;;;;;;;;;;;;21.41;64.82;101104.41;5070139;28;1253;-69
2021/05/27 06:58:24;;;;;;;;;;;;;;;21.40;64.40;101104.50;5068111;28;1488;-67
2021/05/27 07:01:10;;;;;;;;;;;;;;;21.43;64.79;101104.31;5070533;28;1254;-65
2021/05/27 07:03:55;;;;;;;;;;;;;;;21.41;64.65;101103.53;5070531;28;689;-66
2021/05/27 07:06:40;;;;;;;;;;;;;;;21.41;64.58;101109.69;5068418;28;1694;-66
2021/05/27 07:09:26;;;;;;;;;;;;;;;21.38;64.43;101109.88;5038586;28;1926;-65
2021/05/27 07:12:12;;;;;;;;;;;;;;;21.39;64.68;101108.94;5067935;28;1247;-66
2021/05/27 07:14:57;;;;;;;;;;;;;;;21.39;64.29;101114.25;5069018;28;1208;-67
2021/05/27 07:17:42;;;;;;;;;;;;;;;21.44;64.11;101114.81;5068381;28;1341;-63
2021/05/27 07:20:28;;;;;;;;;;;;;;;21.47;64.45;101119.06;5068582;28;666;-65
2021/05/27 07:23:14;;;;;;;;;;;;;;;21.49;64.40;101114.53;5068914;28;710;-65
2021/05/27 07:26:02;;;;;;;;;;;;;;;21.45;63.85;101118.31;5053501;28;1254;-64
2021/05/27 07:28:47;;;;;;;;;;;;;;;21.46;64.58;101118.19;5053758;28;644;-66
2021/05/27 07:31:33;;;;;;;;;;;;;;;21.47;64.15;101121.72;5067329;28;1910;-64
2021/05/27 07:34:18;;;;;;;;;;;;;;;21.43;63.90;101117.56;5068723;28;691;-66
2021/05/27 07:37:04;;;;;;;;;;;;;;;21.41;64.14;101115.00;5068978;28;1204;-66
2021/05/27 07:39:49;;;;;;;;;;;;;;;21.41;64.17;101122.09;5067804;28;1186;-65
2021/05/27 07:42:36;;;;;;;;;;;;;;;21.40;64.40;101126.53;5068745;28;1260;-66
2021/05/27 07:45:22;;;;;;;;;;;;;;;21.41;64.37;101130.03;5067586;28;668;-68
2021/05/27 07:48:07;;;;;;;;;;;;;;;21.40;64.29;101129.19;5066500;28;1081;-69
2021/05/27 07:50:53;;;;;;;;;;;;;;;21.40;64.19;101134.47;5066520;28;1971;-68
2021/05/27 07:53:38;;;;;;;;;;;;;;;21.47;64.57;101132.31;5068128;28;656;-70
2021/05/27 07:56:25;;;;;;;;;;;;;;;21.47;64.99;101114.59;5068217;28;1331;-66
2021/05/27 07:59:14;;;;;;;;;;;;;;;21.44;64.67;101121.91;5067832;28;691;-66
2021/05/27 08:01:59;;;;;;;;;;;;;;;21.47;64.75;101127.00;5066893;28;1550;-68
2021/05/27 08:04:45;;;;;;;;;;;;;;;21.46;64.68;101139.41;5064289;28;1523;-68
2021/05/27 08:07:30;;;;;;;;;;;;;;;21.45;63.86;101137.72;5062870;28;1546;-66
2021/05/27 08:10:15;;;;;;;;;;;;;;;21.43;63.75;101136.94;5064583;28;1898;-65
2021/05/27 08:13:01;;;;;;;;;;;;;;;21.44;63.41;101125.41;5067733;28;1150;-66
2021/05/27 08:15:46;;;;;;;;;;;;;;;21.44;64.15;101125.41;5067488;28;1406;-65
2021/05/27 08:18:32;;;;;;;;;;;;;;;21.45;63.78;101128.91;5067606;28;660;-66
2021/05/27 08:21:17;;;;;;;;;;;;;;;21.49;65.04;101138.38;5052751;28;1237;-66
2021/05/27 08:24:02;;;;;;;;;;;;;;;21.49;63.81;101144.50;5067915;28;632;-68
2021/05/27 08:26:48;;;;;;;;;;;;;;;21.51;64.55;101149.72;5066024;28;1311;-64
2021/05/27 08:29:33;;;;;;;;;;;;;;;21.50;64.08;101145.38;5067239;28;1969;-65
2021/05/27 08:32:18;;;;;;;;;;;;;;;21.51;65.91;101152.38;5067748;28;1378;-68
2021/05/27 08:35:04;;;;;;;;;;;;;;;21.52;64.75;101151.44;5067566;28;624;-68
2021/05/27 08:37:50;;;;;;;;;;;;;;;21.52;64.01;101151.44;5067707;28;1367;-68
2021/05/27 08:40:36;;;;;;;;;;;;;;;21.54;65.54;101147.75;5067313;28;1299;-66
2021/05/27 08:43:21;;;;;;;;;;;;;;;21.55;64.24;101154.72;5067467;28;659;-67
2021/05/27 08:46:07;;;;;;;;;;;;;;;21.53;64.09;101150.47;5067387;28;1350;-72
2021/05/27 08:48:52;;;;;;;;;;;;;;;21.54;63.49;101158.34;5067546;28;628;-71
2021/05/27 08:51:37;;;;;;;;;;;;;;;21.54;63.75;101154.84;5052545;28;1934;-71
2021/05/27 08:54:23;;;;;;;;;;;;;;;21.54;63.96;101152.19;5067608;28;612;-67
2021/05/27 08:57:08;;;;;;;;;;;;;;;21.56;63.23;101151.16;5067326;28;1311;-68
2021/05/27 08:59:54;;;;;;;;;;;;;;;21.56;63.94;101156.44;5052388;28;682;-68
2021/05/27 09:03:01;;;;;;;;;;;;;;;21.56;63.42;101161.75;5066964;28;1547;-67
2021/05/27 09:05:57;;;;;;;;;;;;;;;21.58;64.17;101156.38;5066795;28;1342;-66
2021/05/27 09:08:43;;;;;;;;;;;;;;;21.57;63.64;101158.16;5067478;28;683;-68
2021/05/27 09:11:35;;;;;;;;;;;;;;;21.54;63.26;101160.16;5067424;28;1902;-68
2021/05/27 09:14:21;;;;;;;;;;;;;;;21.58;64.83;101165.16;5067069;28;1134;-66
2021/05/27 09:17:08;;;;;;;;;;;;;;;21.56;63.52;101169.69;5067540;28;1355;-66
2021/05/27 09:20:12;;;;;;;;;;;;;;;21.54;63.38;101163.66;5067146;28;674;-66
2021/05/27 09:23:07;;;;;;;;;;;;;;;21.53;63.17;101177.84;5067635;28;1082;-65
2021/05/27 09:25:55;;;;;;;;;;;;;;;21.57;64.25;101174.06;5067836;28;1419;-66
2021/05/27 09:28:41;;;;;;;;;;;;;;;21.56;63.47;101176.78;5067590;28;945;-68
2021/05/27 09:31:29;;;;;;;;;;;;;;;21.55;63.42;101168.00;5066323;28;1898;-68
2021/05/27 09:34:15;;;;;;;;;;;;;;;21.57;63.09;101178.50;5066905;28;700;-67
2021/05/27 09:37:01;;;;;;;;;;;;;;;21.58;62.97;101181.06;5070485;28;1263;-67
2021/05/27 09:39:47;;;;;;;;;;;;;;;21.58;63.53;101181.06;5070687;28;771;-66
2021/05/27 09:42:46;;;;;;;;;;;;;;;21.58;64.24;101185.53;5071256;28;1319;-67
2021/05/27 09:45:32;;;;;;;;;;;;;;;21.58;64.13;101182.88;5070298;28;651;-67
2021/05/27 09:48:23;;;;;;;;;;;;;;;21.57;63.29;101179.38;5070784;28;706;-69
2021/05/27 09:51:09;;;;;;;;;;;;;;;21.60;64.14;101181.81;5071027;28;1949;-65
2021/05/27 09:53:55;;;;;;;;;;;;;;;21.60;63.21;101170.38;5056172;28;644;-65
2021/05/27 09:56:41;;;;;;;;;;;;;;;21.58;63.49;101180.22;5071351;28;1393;-65
2021/05/27 09:59:36;;;;;;;;;;;;;;;21.57;63.08;101173.22;5056180;28;659;-66
2021/05/27 10:02:22;;;;;;;;;;;;;;;21.56;63.56;101160.88;5069991;28;1602;-66
2021/05/27 10:05:08;;;;;;;;;;;;;;;21.58;64.21;101159.84;5063004;28;696;-67
2021/05/27 10:07:55;;;;;;;;;;;;;;;21.58;63.17;101148.41;5070820;28;1359;-66
2021/05/27 10:11:04;;;;;;;;;;;;;;;21.58;63.05;101156.38;5069547;28;1910;-65
2021/05/27 10:13:50;;;;;;;;;;;;;;;21.57;63.41;101173.22;5065889;28;1055;-70
2021/05/27 10:16:37;;;;;;;;;;;;;;;21.61;63.38;101185.34;5069857;28;1287;-67
2021/05/27 10:19:23;;;;;;;;;;;;;;;21.64;64.13;101193.09;5069863;28;1539;-64
2021/05/27 10:22:08;;;;;;;;;;;;;;;21.60;63.77;101207.47;5051373;28;1300;-64
2021/05/27 10:24:53;;;;;;;;;;;;;;;21.61;64.56;101207.38;5069776;28;660;-66
2021/05/27 10:27:40;;;;;;;;;;;;;;;21.62;64.01;101203.78;5069557;28;1354;-66
2021/05/27 10:30:26;;;;;;;;;;;;;;;21.63;63.96;101196.69;5069076;28;1898;-66
2021/05/27 10:33:21;;;;;;;;;;;;;;;21.59;63.87;101197.81;5069837;28;608;-66
2021/05/27 10:36:07;;;;;;;;;;;;;;;21.56;64.19;101179.44;5069081;28;1288;-66
2021/05/27 10:38:53;;;;;;;;;;;;;;;21.53;64.34;101175.19;5069005;28;1415;-67
2021/05/27 10:41:38;;;;;;;;;;;;;;;21.53;64.10;101174.34;5069091;28;1287;-67
2021/05/27 10:44:24;;;;;;;;;;;;;;;21.53;64.44;101161.94;5069970;28;644;-68
2021/05/27 10:47:12;;;;;;;;;;;;;;;21.58;64.38;101151.06;5068907;28;1378;-64
2021/05/27 10:49:58;;;;;;;;;;;;;;;21.58;63.65;101157.19;5066377;28;640;-67
2021/05/27 10:52:44;;;;;;;;;;;;;;;21.60;64.36;101149.16;5069271;28;1701;-64
2021/05/27 10:55:49;;;;;;;;;;;;;;;21.62;63.37;101134.00;5067782;28;1051;-64
2021/05/27 10:58:47;;;;;;;;;;;;;;;21.63;63.21;101128.63;5060477;28;1146;-65
2021/05/27 11:01:36;;;;;;;;;;;;;;;21.63;63.29;101128.63;5067655;28;1385;-63
2021/05/27 11:04:22;;;;;;;;;;;;;;;21.64;63.22;101116.22;5052847;28;645;-65
2021/05/27 11:07:11;;;;;;;;;;;;;;;21.65;63.13;101125.84;5068129;28;1350;-65
2021/05/27 11:09:58;;;;;;;;;;;;;;;21.60;63.24;101110.25;5068304;28;1060;-63
2021/05/27 11:13:00;;;;;;;;;;;;;;;21.65;62.86;101115.25;5066833;28;1279;-63
2021/05/27 11:16:15;;;;;;;;;;;;;;;21.64;62.97;101111.75;5066738;28;1375;-63
2021/05/27 11:19:00;;;;;;;;;;;;;;;21.65;63.00;101092.25;5062047;28;1608;-64
2021/05/27 11:21:46;;;;;;;;;;;;;;;21.65;63.11;101096.69;5067394;28;1323;-63
2021/05/27 11:24:37;;;;;;;;;;;;;;;21.65;63.16;101094.03;5067999;28;1197;-64
2021/05/27 11:27:27;;;;;;;;;;;;;;;21.68;63.34;101081.44;5068695;28;1228;-67
2021/05/27 11:30:19;;;;;;;;;;;;;;;21.69;63.41;101061.94;5068801;28;1910;-66
2021/05/27 11:33:23;;;;;;;;;;;;;;;21.72;63.01;101066.19;5067784;28;1082;-67
2021/05/27 11:36:12;;;;;;;;;;;;;;;21.72;63.22;101052.94;5062057;28;1441;-65
2021/05/27 11:38:58;;;;;;;;;;;;;;;21.75;64.28;101045.66;5067639;28;1466;-66
2021/05/27 11:41:45;;;;;;;;;;;;;;;21.78;63.51;101044.59;5052173;28;1421;-66
2021/05/27 11:44:30;;;;;;;;;;;;;;;21.77;63.46;101050.81;5067457;28;679;-65
2021/05/27 11:47:16;;;;;;;;;;;;;;;21.74;63.33;101043.94;5067576;28;1387;-66
2021/05/27 11:51:55;;;;;;;;;;;;;;;21.72;62.28;101044.97;5103962;27;1311;-65
2021/05/27 11:54:40;;;;;;;;;;;;;;;21.70;63.09;101050.38;5103853;28;1071;-65
2021/05/27 11:57:44;;;;;;;;;;;;;;;21.71;63.19;101053.88;5103767;28;1229;-66
2021/05/27 12:00:29;;;;;;;;;;;;;;;21.70;62.86;101053.03;5103735;28;706;-65
2021/05/27 12:03:15;;;;;;;;;;;;;;;21.71;63.35;101045.91;5097381;28;1514;-65
2021/05/27 12:06:00;;;;;;;;;;;;;;;21.71;63.47;101060.03;5083418;28;1314;-65
2021/05/27 12:08:45;;;;;;;;;;;;;;;21.71;63.51;101059.19;5085572;28;967;-64
2021/05/27 12:11:31;;;;;;;;;;;;;;;21.67;63.18;101049.75;5084101;28;1988;-67
2021/05/27 12:14:17;;;;;;;;;;;;;;;21.71;63.64;101062.69;5085070;28;659;-67
2021/05/27 12:17:15;;;;;;;;;;;;;;;21.71;63.62;101060.03;5084912;28;1369;-65
2021/05/27 12:20:11;;;;;;;;;;;;;;;21.72;63.29;101044.97;5083421;28;816;-67
2021/05/27 12:23:00;;;;;;;;;;;;;;;21.72;63.32;101039.69;5085001;28;1300;-67
2021/05/27 12:25:50;;;;;;;;;;;;;;;21.72;63.63;101047.63;5084647;28;1256;-67
2021/05/27 12:28:37;;;;;;;;;;;;;;;21.73;63.40;101041.41;5085054;28;1173;-65
2021/05/27 12:31:23;;;;;;;;;;;;;;;21.74;63.47;101029.81;5084325;28;1971;-65
2021/05/27 12:34:08;;;;;;;;;;;;;;;21.75;62.92;101024.44;5085021;28;659;-67
2021/05/27 12:36:58;;;;;;;;;;;;;;;21.76;63.53;101025.28;5083327;28;1226;-68
2021/05/27 12:39:44;;;;;;;;;;;;;;;21.75;63.30;101032.38;5084253;28;930;-68
2021/05/27 12:42:34;;;;;;;;;;;;;;;21.75;63.59;101029.72;5084684;28;1288;-66
2021/05/27 12:45:31;;;;;;;;;;;;;;;21.78;63.16;101026.03;5099427;28;1771;-68
2021/05/27 12:48:18;;;;;;;;;;;;;;;21.85;63.45;101037.09;5121327;28;1141;-68
2021/05/27 12:51:04;;;;;;;;;;;;;;;21.85;63.26;101037.94;5103040;28;1999;-70
2021/05/27 12:53:53;;;;;;;;;;;;;;;21.86;63.02;101030.81;5115110;28;1049;-69
2021/05/27 12:56:42;;;;;;;;;;;;;;;21.87;63.25;101033.38;5124247;28;1297;-67
2021/05/27 12:59:27;;;;;;;;;;;;;;;21.90;63.60;101035.88;5123362;28;695;-70
2021/05/27 13:02:13;;;;;;;;;;;;;;;21.94;63.24;101041.81;5104101;28;1369;-68
2021/05/27 13:05:14;;;;;;;;;;;;;;;21.93;62.65;101043.63;5085020;28;920;-70
2021/05/27 13:08:01;;;;;;;;;;;;;;;22.00;63.44;101034.31;5084236;28;1141;-65
2021/05/27 13:10:46;;;;;;;;;;;;;;;22.09;62.95;101032.84;5087876;28;1914;-63
2021/05/27 13:13:33;;;;;;;;;;;;;;;22.09;63.46;101054.06;5089231;28;1046;-63
2021/05/27 13:16:38;;;;;;;;;;;;;;;22.11;64.36;101060.13;5087963;28;1323;-60
2021/05/27 13:19:23;;;;;;;;;;;;;;;22.12;64.39;101056.53;5089608;28;1200;-63
2021/05/27 13:22:38;;;;;;;;;;;;;;;22.12;64.82;101049.44;5089773;28;1366;-64
2021/05/27 13:25:29;;;;;;;;;;;;;;;22.18;65.58;101040.19;5087693;28;1013;-65
2021/05/27 13:28:26;;;;;;;;;;;;;;;22.24;65.18;101032.69;5090282;28;1145;-62
2021/05/27 13:31:12;;;;;;;;;;;;;;;22.25;65.97;101026.41;5090083;28;1946;-64
2021/05/27 13:33:57;;;;;;;;;;;;;;;22.21;65.60;101027.59;5089146;28;639;-63
2021/05/27 13:36:43;;;;;;;;;;;;;;;22.20;65.53;101023.22;5088832;28;1363;-63
2021/05/27 13:39:29;;;;;;;;;;;;;;;22.18;64.86;101022.47;5088187;28;628;-63
2021/05/27 13:42:14;;;;;;;;;;;;;;;22.18;64.88;101022.47;5069837;28;1272;-65
2021/05/27 13:44:59;;;;;;;;;;;;;;;22.17;64.42;101031.38;5069770;28;656;-62
2021/05/27 13:47:45;;;;;;;;;;;;;;;22.25;65.78;101018.44;5069484;28;1304;-63
2021/05/27 13:50:32;;;;;;;;;;;;;;;22.27;65.07;101013.03;5069453;28;1906;-62
2021/05/27 13:53:18;;;;;;;;;;;;;;;22.21;64.93;101026.72;5069242;28;1057;-63
2021/05/27 13:56:05;;;;;;;;;;;;;;;22.28;65.81;101017.41;5071502;28;1514;-58
2021/05/27 13:58:51;;;;;;;;;;;;;;;22.29;65.97;101014.63;5095652;28;1054;-63
2021/05/27 14:01:37;;;;;;;;;;;;;;;22.31;63.72;101012.72;5090324;28;1290;-65
2021/05/27 14:04:24;;;;;;;;;;;;;;;22.29;64.03;101014.63;5090588;28;735;-60
2021/05/27 14:07:09;;;;;;;;;;;;;;;22.21;64.80;101013.47;5089863;28;1292;-62
2021/05/27 14:09:56;;;;;;;;;;;;;;;22.13;64.25;101021.91;5089754;28;635;-63
2021/05/27 14:12:42;;;;;;;;;;;;;;;22.07;65.13;101017.03;5090199;28;1280;-63
2021/05/27 14:15:28;;;;;;;;;;;;;;;22.04;65.22;101019.88;5087916;28;624;-64
2021/05/27 14:18:13;;;;;;;;;;;;;;;22.02;65.16;101013.84;5087148;28;1108;-63
2021/05/27 14:20:59;;;;;;;;;;;;;;;22.00;64.95;101018.41;5088503;28;1283;-63
2021/05/27 14:23:44;;;;;;;;;;;;;;;21.98;64.99;101020.28;5087507;28;927;-64
2021/05/27 14:26:30;;;;;;;;;;;;;;;21.97;64.89;101013.31;5088141;28;1370;-63
2021/05/27 14:29:24;;;;;;;;;;;;;;;21.96;64.74;101010.72;5089695;28;669;-63
2021/05/27 14:32:10;;;;;;;;;;;;;;;21.95;64.67;101012.53;5089645;28;1913;-63
2021/05/27 14:34:55;;;;;;;;;;;;;;;21.93;64.53;101003.84;5089811;28;682;-63
2021/05/27 14:37:40;;;;;;;;;;;;;;;21.93;64.30;101003.84;5090122;28;1363;-64
2021/05/27 14:40:26;;;;;;;;;;;;;;;21.91;64.43;101013.72;5090055;28;694;-63
2021/05/27 14:43:12;;;;;;;;;;;;;;;21.91;64.60;101008.41;5090003;28;1102;-63